createdAt,value
2016-10-07T00:00:02.194Z,0
2016-10-07T00:01:12.714Z,0
2016-10-07T00:02:23.267Z,0
2016-10-07T00:03:33.888Z,0
2016-10-07T00:04:44.800Z,0
2016-10-07T00:05:55.341Z,0
2016-10-07T00:07:05.869Z,0
2016-10-07T00:08:16.410Z,0
2016-10-07T00:09:27.075Z,0
2016-10-07T00:10:37.598Z,0
2016-10-07T00:11:48.570Z,0
2016-10-07T00:12:59.110Z,0
2016-10-07T00:14:09.663Z,0
2016-10-07T00:15:20.182Z,0
2016-10-07T00:16:30.729Z,0
2016-10-07T00:17:41.668Z,0
2016-10-07T00:18:52.213Z,0
2016-10-07T00:20:02.739Z,0
2016-10-07T00:21:13.428Z,0
2016-10-07T00:22:23.973Z,0
2016-10-07T00:23:34.505Z,0
2016-10-07T00:24:45.043Z,0
2016-10-07T00:25:55.578Z,0
2016-10-07T00:27:06.218Z,0
2016-10-07T00:28:16.750Z,0
2016-10-07T00:29:27.322Z,0
2016-10-07T00:30:37.853Z,0
2016-10-07T00:31:48.390Z,0
2016-10-07T00:32:59.050Z,0
2016-10-07T00:34:10.003Z,0
2016-10-07T00:35:20.527Z,0
2016-10-07T00:36:31.064Z,0
2016-10-07T00:37:41.615Z,0
2016-10-07T00:38:52.625Z,0
2016-10-07T00:40:03.173Z,0
2016-10-07T00:41:13.693Z,0
2016-10-07T00:42:24.223Z,0
2016-10-07T00:43:34.803Z,0
2016-10-07T00:44:45.523Z,0
2016-10-07T00:45:56.072Z,0
2016-10-07T00:47:06.600Z,0
2016-10-07T00:48:17.142Z,0
2016-10-07T00:49:27.682Z,0
2016-10-07T00:50:38.186Z,0
2016-10-07T00:51:48.707Z,0
2016-10-07T00:52:59.610Z,0
2016-10-07T00:54:10.160Z,0
2016-10-07T00:55:20.723Z,0
2016-10-07T00:56:31.785Z,0
2016-10-07T00:57:42.306Z,0
2016-10-07T00:58:53.258Z,0
2016-10-07T01:00:03.759Z,0
2016-10-07T01:01:14.791Z,0
2016-10-07T01:02:25.400Z,0
2016-10-07T01:03:35.962Z,0
2016-10-07T01:04:46.472Z,0
2016-10-07T01:05:57.056Z,0
2016-10-07T01:07:07.582Z,0
2016-10-07T01:08:18.241Z,0
2016-10-07T01:09:28.788Z,0
2016-10-07T01:10:39.265Z,0
2016-10-07T01:11:49.829Z,0
2016-10-07T01:13:00.367Z,0
2016-10-07T01:14:10.938Z,0
2016-10-07T01:15:21.937Z,0
2016-10-07T01:16:32.467Z,0
2016-10-07T01:17:42.971Z,0
2016-10-07T01:18:53.532Z,0
2016-10-07T01:20:04.120Z,0
2016-10-07T01:21:14.643Z,0
2016-10-07T01:22:25.579Z,0
2016-10-07T01:23:36.134Z,0
2016-10-07T01:24:46.697Z,0
2016-10-07T01:25:57.333Z,0
2016-10-07T01:27:08.379Z,0
2016-10-07T01:28:19.438Z,0
2016-10-07T01:29:29.943Z,0
2016-10-07T01:30:40.499Z,0
2016-10-07T01:31:51.117Z,0
2016-10-07T01:33:01.642Z,0
2016-10-07T01:34:12.144Z,0
2016-10-07T01:35:22.650Z,0
2016-10-07T01:36:34.084Z,0
2016-10-07T01:37:44.621Z,0
2016-10-07T01:38:55.149Z,0
2016-10-07T01:40:05.685Z,0
2016-10-07T01:41:16.230Z,0
2016-10-07T01:42:26.755Z,0
2016-10-07T01:43:37.901Z,0
2016-10-07T01:44:48.440Z,0
2016-10-07T01:45:58.983Z,0
2016-10-07T01:47:09.542Z,0
2016-10-07T01:48:20.460Z,0
2016-10-07T01:49:31.530Z,0
2016-10-07T01:50:42.102Z,0
2016-10-07T01:51:52.666Z,0
2016-10-07T01:53:03.195Z,0
2016-10-07T01:54:13.711Z,0
2016-10-07T01:55:24.346Z,0
2016-10-07T01:56:35.249Z,0
2016-10-07T01:57:45.771Z,0
2016-10-07T01:58:56.288Z,0
2016-10-07T02:00:06.894Z,0
2016-10-07T02:01:17.362Z,0
2016-10-07T02:02:27.909Z,0
2016-10-07T02:03:38.407Z,0
2016-10-07T02:04:48.932Z,0
2016-10-07T02:05:59.473Z,0
2016-10-07T02:07:10.102Z,0
2016-10-07T02:08:20.618Z,0
2016-10-07T02:09:31.127Z,0
2016-10-07T02:10:41.654Z,0
2016-10-07T02:11:52.185Z,0
2016-10-07T02:13:02.899Z,0
2016-10-07T02:14:13.376Z,0
2016-10-07T02:15:23.946Z,0
2016-10-07T02:16:35.011Z,0
2016-10-07T02:17:45.557Z,0
2016-10-07T02:18:56.215Z,0
2016-10-07T02:20:07.163Z,0
2016-10-07T02:21:17.699Z,0
2016-10-07T02:22:28.253Z,0
2016-10-07T02:23:38.762Z,0
2016-10-07T02:24:49.760Z,0
2016-10-07T02:26:00.328Z,0
2016-10-07T02:27:10.895Z,0
2016-10-07T02:28:21.405Z,0
2016-10-07T02:29:31.958Z,0
2016-10-07T02:30:43.045Z,0
2016-10-07T02:31:53.620Z,0
2016-10-07T02:33:04.196Z,0
2016-10-07T02:34:14.767Z,0
2016-10-07T02:35:25.350Z,0
2016-10-07T02:36:36.025Z,0
2016-10-07T02:37:46.618Z,0
2016-10-07T02:38:57.194Z,0
2016-10-07T02:40:07.764Z,0
2016-10-07T02:41:18.343Z,0
2016-10-07T02:42:29.035Z,0
2016-10-07T02:43:39.604Z,0
2016-10-07T02:44:50.185Z,0
2016-10-07T02:46:00.762Z,0
2016-10-07T02:47:11.343Z,0
2016-10-07T02:48:21.916Z,0
2016-10-07T02:49:32.887Z,0
2016-10-07T02:50:43.457Z,0
2016-10-07T02:51:54.030Z,0
2016-10-07T02:53:04.611Z,0
2016-10-07T02:54:15.285Z,0
2016-10-07T02:55:25.858Z,0
2016-10-07T02:56:36.429Z,0
2016-10-07T02:57:47.404Z,0
2016-10-07T02:58:57.995Z,0
2016-10-07T03:00:08.676Z,0
2016-10-07T03:01:19.262Z,0
2016-10-07T03:02:29.848Z,0
2016-10-07T03:03:40.384Z,0
2016-10-07T03:04:50.906Z,0
2016-10-07T03:06:01.576Z,0
2016-10-07T03:07:12.132Z,0
2016-10-07T03:08:03.641Z,0
2016-10-07T03:09:14.150Z,0
2016-10-07T03:10:24.700Z,0
2016-10-07T03:11:35.227Z,0
2016-10-07T03:12:45.734Z,0
2016-10-07T03:13:56.287Z,0
2016-10-07T03:15:06.799Z,0
2016-10-07T03:16:17.370Z,0
2016-10-07T03:17:28.025Z,0
2016-10-07T03:18:38.518Z,0
2016-10-07T03:19:48.991Z,0
2016-10-07T03:20:59.526Z,0
2016-10-07T03:22:10.032Z,0
2016-10-07T03:23:20.602Z,0
2016-10-07T03:24:31.131Z,0
2016-10-07T03:25:41.683Z,0
2016-10-07T03:26:52.240Z,0
2016-10-07T03:28:02.813Z,0
2016-10-07T03:29:13.430Z,0
2016-10-07T03:30:23.982Z,0
2016-10-07T03:31:34.452Z,0
2016-10-07T03:32:45.035Z,0
2016-10-07T03:33:55.576Z,0
2016-10-07T03:35:07.429Z,0
2016-10-07T03:36:17.932Z,0
2016-10-07T03:37:28.902Z,0
2016-10-07T03:38:39.383Z,0
2016-10-07T03:39:49.873Z,0
2016-10-07T03:41:00.951Z,0
2016-10-07T03:42:11.449Z,0
2016-10-07T03:43:22.441Z,0
2016-10-07T03:44:32.930Z,0
2016-10-07T03:45:43.449Z,0
2016-10-07T03:46:54.038Z,0
2016-10-07T03:48:05.027Z,0
2016-10-07T03:49:16.551Z,0
2016-10-07T03:50:27.016Z,0
2016-10-07T03:51:37.526Z,0
2016-10-07T03:52:48.596Z,0
2016-10-07T03:53:59.486Z,0
2016-10-07T03:55:10.006Z,0
2016-10-07T03:56:20.539Z,0
2016-10-07T03:57:31.517Z,0
2016-10-07T03:58:42.043Z,0
2016-10-07T03:59:52.999Z,0
2016-10-07T04:01:03.478Z,0
2016-10-07T04:02:14.927Z,0
2016-10-07T04:03:25.436Z,0
2016-10-07T04:04:35.995Z,0
2016-10-07T04:05:46.511Z,0
2016-10-07T04:06:57.514Z,0
2016-10-07T04:08:08.030Z,0
2016-10-07T04:09:19.058Z,0
2016-10-07T04:10:30.676Z,0
2016-10-07T04:11:41.197Z,0
2016-10-07T04:12:52.719Z,0
2016-10-07T04:14:03.241Z,0
2016-10-07T04:15:13.729Z,0
2016-10-07T04:16:24.349Z,0
2016-10-07T04:17:34.929Z,0
2016-10-07T04:18:45.489Z,0
2016-10-07T04:19:56.037Z,0
2016-10-07T04:21:06.591Z,0
2016-10-07T04:22:17.624Z,0
2016-10-07T04:23:28.550Z,0
2016-10-07T04:24:39.118Z,0
2016-10-07T04:25:49.638Z,0
2016-10-07T04:27:00.671Z,0
2016-10-07T04:28:11.857Z,0
2016-10-07T04:29:22.435Z,0
2016-10-07T04:30:33.009Z,0
2016-10-07T04:31:43.522Z,0
2016-10-07T04:32:54.085Z,0
2016-10-07T04:34:04.722Z,0
2016-10-07T04:35:15.217Z,0
2016-10-07T04:36:25.799Z,0
2016-10-07T04:37:36.753Z,0
2016-10-07T04:38:47.299Z,0
2016-10-07T04:39:57.944Z,0
2016-10-07T04:41:08.467Z,0
2016-10-07T04:42:19.004Z,0
2016-10-07T04:43:29.509Z,0
2016-10-07T04:44:40.060Z,0
2016-10-07T04:45:50.588Z,0
2016-10-07T04:47:01.111Z,0
2016-10-07T04:48:11.629Z,0
2016-10-07T04:49:22.191Z,0
2016-10-07T04:50:32.699Z,0
2016-10-07T04:51:43.346Z,0
2016-10-07T04:52:53.891Z,0
2016-10-07T04:54:04.777Z,0
2016-10-07T04:55:15.308Z,0
2016-10-07T04:56:25.876Z,0
2016-10-07T04:57:36.530Z,0
2016-10-07T04:58:47.079Z,0
2016-10-07T04:59:57.625Z,0
2016-10-07T05:01:08.174Z,0
2016-10-07T05:02:19.253Z,0
2016-10-07T05:03:29.935Z,0
2016-10-07T05:04:40.475Z,0
2016-10-07T05:05:51.020Z,0
2016-10-07T05:07:01.933Z,0
2016-10-07T05:08:12.439Z,0
2016-10-07T05:09:22.990Z,0
2016-10-07T05:10:33.510Z,0
2016-10-07T05:11:44.023Z,0
2016-10-07T05:12:54.510Z,0
2016-10-07T05:14:05.034Z,0
2016-10-07T05:15:15.737Z,0
2016-10-07T05:16:26.269Z,0
2016-10-07T05:17:36.773Z,0
2016-10-07T05:18:47.323Z,0
2016-10-07T05:19:58.252Z,0
2016-10-07T05:21:08.892Z,0
2016-10-07T05:22:19.465Z,0
2016-10-07T05:23:30.033Z,0
2016-10-07T05:24:40.599Z,0
2016-10-07T05:25:51.218Z,0
2016-10-07T05:27:01.861Z,0
2016-10-07T05:28:12.372Z,0
2016-10-07T05:29:22.907Z,0
2016-10-07T05:30:33.493Z,0
2016-10-07T05:31:44.026Z,0
2016-10-07T05:32:54.601Z,0
2016-10-07T05:34:05.132Z,0
2016-10-07T05:35:15.675Z,0
2016-10-07T05:36:26.195Z,0
2016-10-07T05:37:36.740Z,0
2016-10-07T05:38:47.422Z,0
2016-10-07T05:39:57.983Z,0
2016-10-07T05:41:08.553Z,0
2016-10-07T05:42:19.117Z,0
2016-10-07T05:43:29.669Z,0
2016-10-07T05:44:40.295Z,0
2016-10-07T05:45:50.824Z,0
2016-10-07T05:47:01.365Z,0
2016-10-07T05:48:11.867Z,0
2016-10-07T05:49:22.343Z,0
2016-10-07T05:50:33.416Z,0
2016-10-07T05:51:44.280Z,0
2016-10-07T05:52:54.760Z,0
2016-10-07T05:54:05.617Z,0
2016-10-07T05:55:16.136Z,0
2016-10-07T05:56:26.612Z,0
2016-10-07T05:57:37.111Z,0
2016-10-07T05:58:47.578Z,0
2016-10-07T05:59:58.087Z,0
2016-10-07T06:01:08.578Z,0
2016-10-07T06:02:19.202Z,0
2016-10-07T06:03:29.669Z,0
2016-10-07T06:04:40.140Z,0
2016-10-07T06:05:50.604Z,0
2016-10-07T06:07:01.067Z,0
2016-10-07T06:08:11.678Z,0
2016-10-07T06:09:22.129Z,0
2016-10-07T06:10:32.619Z,0
2016-10-07T06:11:43.120Z,0
2016-10-07T06:12:53.653Z,0
2016-10-07T06:14:04.245Z,0
2016-10-07T06:15:14.738Z,0
2016-10-07T06:16:25.244Z,0
2016-10-07T06:17:35.779Z,0
2016-10-07T06:18:46.272Z,0
2016-10-07T06:19:56.753Z,0
2016-10-07T06:21:07.253Z,0
2016-10-07T06:22:17.775Z,0
2016-10-07T06:23:28.312Z,0
2016-10-07T06:24:38.862Z,0
2016-10-07T06:25:49.885Z,0
2016-10-07T06:27:00.417Z,0
2016-10-07T06:28:10.918Z,0
2016-10-07T06:29:21.429Z,0
2016-10-07T06:30:31.956Z,0
2016-10-07T06:31:42.604Z,0
2016-10-07T06:32:53.542Z,0
2016-10-07T06:34:04.098Z,0
2016-10-07T06:35:14.660Z,0
2016-10-07T06:36:25.158Z,0
2016-10-07T06:37:35.780Z,0
2016-10-07T06:38:46.353Z,0
2016-10-07T06:39:56.897Z,0
2016-10-07T06:41:07.452Z,0
2016-10-07T06:42:18.009Z,0
2016-10-07T06:43:28.580Z,0
2016-10-07T06:44:39.112Z,0
2016-10-07T06:45:49.589Z,0
2016-10-07T06:47:00.120Z,0
2016-10-07T06:48:10.661Z,0
2016-10-07T06:49:21.240Z,0
2016-10-07T06:50:31.824Z,0
2016-10-07T06:51:42.400Z,0
2016-10-07T06:52:52.894Z,0
2016-10-07T06:54:03.762Z,0
2016-10-07T06:55:14.469Z,0
2016-10-07T06:56:25.041Z,0
2016-10-07T06:57:35.617Z,0
2016-10-07T06:58:46.192Z,0
2016-10-07T06:59:56.779Z,0
2016-10-07T07:01:07.850Z,0
2016-10-07T07:02:18.423Z,0
2016-10-07T07:03:29.010Z,0
2016-10-07T07:04:39.593Z,0
2016-10-07T07:05:50.164Z,0
2016-10-07T07:07:00.851Z,0
2016-10-07T07:08:11.435Z,0
2016-10-07T07:09:22.007Z,0
2016-10-07T07:10:32.585Z,0
2016-10-07T07:11:43.158Z,0
2016-10-07T07:12:53.835Z,0
2016-10-07T07:14:04.401Z,0
2016-10-07T07:15:14.967Z,0
2016-10-07T07:16:25.533Z,0
2016-10-07T07:17:36.113Z,0
2016-10-07T07:18:47.177Z,0
2016-10-07T07:19:57.740Z,0
2016-10-07T07:21:08.310Z,0
2016-10-07T07:22:18.882Z,0
2016-10-07T07:23:29.455Z,0
2016-10-07T07:24:40.032Z,0
2016-10-07T07:25:50.610Z,0
2016-10-07T07:27:01.185Z,0
2016-10-07T07:28:11.753Z,0
2016-10-07T07:29:22.329Z,0
2016-10-07T07:30:33.001Z,0
2016-10-07T07:31:43.578Z,0
2016-10-07T07:32:54.174Z,0
2016-10-07T07:34:04.746Z,0
2016-10-07T07:35:15.312Z,0
2016-10-07T07:36:25.992Z,0
2016-10-07T07:37:36.568Z,0
2016-10-07T07:38:47.147Z,0
2016-10-07T07:39:57.712Z,0
2016-10-07T07:41:08.283Z,0
2016-10-07T07:42:18.962Z,0
2016-10-07T07:43:29.528Z,0
2016-10-07T07:44:40.111Z,0
2016-10-07T07:45:51.175Z,0
2016-10-07T07:47:01.798Z,0
2016-10-07T07:48:12.370Z,0
2016-10-07T07:49:23.445Z,0
2016-10-07T07:50:34.010Z,0
2016-10-07T07:51:44.588Z,0
2016-10-07T07:52:55.164Z,0
2016-10-07T07:54:05.861Z,0
2016-10-07T07:55:16.437Z,0
2016-10-07T07:56:27.023Z,0
2016-10-07T07:57:37.595Z,0
2016-10-07T07:58:48.159Z,0
2016-10-07T07:59:58.839Z,0
2016-10-07T08:01:09.423Z,0
2016-10-07T08:02:19.988Z,0
2016-10-07T08:03:30.563Z,0
2016-10-07T08:04:41.132Z,0
2016-10-07T08:05:51.813Z,0
2016-10-07T08:07:02.379Z,0
2016-10-07T08:08:12.958Z,0
2016-10-07T08:09:23.529Z,0
2016-10-07T08:10:34.114Z,0
2016-10-07T08:11:44.696Z,0
2016-10-07T08:12:55.274Z,0
2016-10-07T08:14:05.833Z,0
2016-10-07T08:15:16.400Z,0
2016-10-07T08:16:26.977Z,0
2016-10-07T08:17:37.747Z,0
2016-10-07T08:18:48.319Z,0
2016-10-07T08:19:58.884Z,0
2016-10-07T08:21:09.845Z,0
2016-10-07T08:22:20.440Z,0
2016-10-07T08:23:31.097Z,0
2016-10-07T08:24:41.660Z,0
2016-10-07T08:25:52.236Z,0
2016-10-07T08:27:02.845Z,0
2016-10-07T08:28:13.416Z,0
2016-10-07T08:29:24.103Z,0
2016-10-07T08:30:34.676Z,0
2016-10-07T08:31:45.637Z,0
2016-10-07T08:32:56.240Z,0
2016-10-07T08:34:06.817Z,0
2016-10-07T08:35:17.543Z,0
2016-10-07T08:36:28.056Z,0
2016-10-07T08:37:38.602Z,0
2016-10-07T08:38:49.157Z,0
2016-10-07T08:39:59.755Z,0
2016-10-07T08:41:10.365Z,0
2016-10-07T08:42:20.868Z,5
2016-10-07T08:43:31.785Z,5
2016-10-07T08:44:42.339Z,5
2016-10-07T08:45:53.352Z,5
2016-10-07T08:47:04.007Z,5
2016-10-07T08:48:14.536Z,10
2016-10-07T08:49:25.083Z,10
2016-10-07T08:50:35.636Z,5
2016-10-07T08:51:46.165Z,5
2016-10-07T08:52:56.705Z,5
2016-10-07T08:54:07.257Z,5
2016-10-07T08:55:17.788Z,10
2016-10-07T08:56:28.338Z,15
2016-10-07T08:57:38.917Z,15
2016-10-07T08:58:49.537Z,15
2016-10-07T09:00:00.065Z,15
2016-10-07T09:01:10.619Z,15
2016-10-07T09:02:21.180Z,15
2016-10-07T09:03:31.704Z,15
2016-10-07T09:04:42.382Z,15
2016-10-07T09:05:52.904Z,15
2016-10-07T09:07:03.405Z,20
2016-10-07T09:08:13.978Z,20
2016-10-07T09:09:24.526Z,20
2016-10-07T09:10:35.157Z,20
2016-10-07T09:11:45.717Z,15
2016-10-07T09:12:56.249Z,20
2016-10-07T09:14:06.810Z,20
2016-10-07T09:15:17.325Z,20
2016-10-07T09:16:27.838Z,25
2016-10-07T09:17:38.409Z,25
2016-10-07T09:18:48.982Z,30
2016-10-07T09:19:59.521Z,30
2016-10-07T09:21:10.069Z,35
2016-10-07T09:22:20.818Z,35
2016-10-07T09:23:31.338Z,35
2016-10-07T09:24:42.261Z,40
2016-10-07T09:25:53.270Z,40
2016-10-07T09:27:03.805Z,50
2016-10-07T09:28:14.434Z,60
2016-10-07T09:29:25.481Z,65
2016-10-07T09:30:36.007Z,65
2016-10-07T09:31:46.955Z,65
2016-10-07T09:32:57.498Z,65
2016-10-07T09:34:08.139Z,65
2016-10-07T09:35:18.690Z,60
2016-10-07T09:36:29.222Z,65
2016-10-07T09:37:39.770Z,75
2016-10-07T09:38:50.297Z,85
2016-10-07T09:40:00.828Z,90
2016-10-07T09:41:11.396Z,100
2016-10-07T09:42:21.897Z,110
2016-10-07T09:43:32.377Z,125
2016-10-07T09:44:42.895Z,145
2016-10-07T09:45:53.579Z,155
2016-10-07T09:47:04.104Z,135
2016-10-07T09:48:14.595Z,115
2016-10-07T09:49:25.171Z,130
2016-10-07T09:50:35.734Z,150
2016-10-07T09:51:46.372Z,145
2016-10-07T09:52:56.906Z,130
2016-10-07T09:54:07.467Z,140
2016-10-07T09:55:18.391Z,165
2016-10-07T09:56:28.931Z,170
2016-10-07T09:57:39.586Z,185
2016-10-07T09:58:50.135Z,200
2016-10-07T10:00:00.671Z,215
2016-10-07T10:01:11.191Z,220
2016-10-07T10:02:21.735Z,210
2016-10-07T10:03:32.231Z,210
2016-10-07T10:04:42.761Z,225
2016-10-07T10:05:53.249Z,230
2016-10-07T10:07:03.799Z,200
2016-10-07T10:08:14.343Z,220
2016-10-07T10:09:24.987Z,245
2016-10-07T10:10:35.998Z,305
2016-10-07T10:11:46.561Z,395
2016-10-07T10:12:57.097Z,425
2016-10-07T10:14:08.185Z,350
2016-10-07T10:15:18.995Z,400
2016-10-07T10:16:29.719Z,910
2016-10-07T10:17:40.405Z,1265
2016-10-07T10:18:51.531Z,445
2016-10-07T10:20:02.997Z,290
2016-10-07T10:21:13.844Z,235
2016-10-07T10:22:24.879Z,270
2016-10-07T10:23:35.666Z,280
2016-10-07T10:24:47.145Z,240
2016-10-07T10:25:58.246Z,195
2016-10-07T10:27:09.568Z,200
2016-10-07T10:28:20.652Z,235
2016-10-07T10:29:31.797Z,310
2016-10-07T10:30:42.524Z,355
2016-10-07T10:31:53.601Z,370
2016-10-07T10:33:04.723Z,395
2016-10-07T10:34:16.266Z,360
2016-10-07T10:35:27.026Z,310
2016-10-07T10:36:38.096Z,295
2016-10-07T10:37:49.181Z,300
2016-10-07T10:39:01.071Z,320
2016-10-07T10:40:11.792Z,340
2016-10-07T10:41:25.942Z,395
2016-10-07T10:42:37.060Z,420
2016-10-07T10:43:47.713Z,480
2016-10-07T10:44:58.409Z,485
2016-10-07T10:46:09.144Z,395
2016-10-07T10:47:20.429Z,355
2016-10-07T10:48:31.859Z,345
2016-10-07T10:49:43.090Z,335
2016-10-07T10:50:54.260Z,340
2016-10-07T10:52:04.958Z,355
2016-10-07T10:53:15.671Z,350
2016-10-07T10:54:26.810Z,380
2016-10-07T10:55:38.056Z,425
2016-10-07T10:56:49.670Z,435
2016-10-07T10:58:00.404Z,425
2016-10-07T10:59:11.182Z,475
2016-10-07T11:00:21.915Z,550
2016-10-07T11:01:32.576Z,615
2016-10-07T11:02:43.798Z,575
2016-10-07T11:03:54.482Z,515
2016-10-07T11:05:05.087Z,550
2016-10-07T11:06:16.125Z,645
2016-10-07T11:07:27.134Z,820
2016-10-07T11:08:38.359Z,815
2016-10-07T11:09:49.890Z,1090
2016-10-07T11:11:00.592Z,470
2016-10-07T11:12:11.255Z,375
2016-10-07T11:13:22.281Z,350
2016-10-07T11:14:33.838Z,380
2016-10-07T11:15:45.307Z,380
2016-10-07T11:16:57.149Z,365
2016-10-07T11:18:08.265Z,370
2016-10-07T11:19:19.343Z,360
2016-10-07T11:20:30.978Z,340
2016-10-07T11:21:42.036Z,335
2016-10-07T11:22:53.442Z,360
2016-10-07T11:24:04.071Z,340
2016-10-07T11:25:15.192Z,280
2016-10-07T11:26:26.367Z,260
2016-10-07T11:27:37.468Z,295
2016-10-07T11:28:48.571Z,315
2016-10-07T11:30:00.089Z,330
2016-10-07T11:31:11.262Z,350
2016-10-07T11:32:22.344Z,365
2016-10-07T11:33:33.029Z,370
2016-10-07T11:34:44.092Z,350
2016-10-07T11:35:54.820Z,315
2016-10-07T11:37:05.860Z,280
2016-10-07T11:38:17.206Z,280
2016-10-07T11:39:27.898Z,280
2016-10-07T11:40:39.363Z,270
2016-10-07T11:41:50.826Z,270
2016-10-07T11:43:01.559Z,285
2016-10-07T11:44:12.381Z,305
2016-10-07T11:45:23.070Z,335
2016-10-07T11:46:34.191Z,385
2016-10-07T11:47:44.923Z,440
2016-10-07T11:48:56.075Z,505
2016-10-07T11:50:06.917Z,560
2016-10-07T11:51:17.622Z,585
2016-10-07T11:52:28.320Z,585
2016-10-07T11:53:39.414Z,575
2016-10-07T11:54:50.498Z,545
2016-10-07T11:56:01.298Z,540
2016-10-07T11:57:12.420Z,545
2016-10-07T11:58:23.528Z,560
2016-10-07T11:59:34.183Z,600
2016-10-07T12:00:45.254Z,635
2016-10-07T12:01:56.141Z,690
2016-10-07T12:03:07.202Z,1680
2016-10-07T12:04:18.332Z,1275
2016-10-07T12:05:28.996Z,2315
2016-10-07T12:06:40.079Z,1030
2016-10-07T12:07:51.486Z,775
2016-10-07T12:09:02.168Z,625
2016-10-07T12:10:13.355Z,520
2016-10-07T12:11:24.479Z,455
2016-10-07T12:12:35.207Z,410
2016-10-07T12:13:46.081Z,355
2016-10-07T12:14:56.780Z,310
2016-10-07T12:16:07.459Z,290
2016-10-07T12:17:18.176Z,280
2016-10-07T12:18:29.283Z,290
2016-10-07T12:19:40.159Z,305
2016-10-07T12:20:51.677Z,315
2016-10-07T12:22:02.766Z,335
2016-10-07T12:23:13.900Z,360
2016-10-07T12:24:25.346Z,375
2016-10-07T12:25:36.444Z,355
2016-10-07T12:26:47.189Z,320
2016-10-07T12:27:57.919Z,280
2016-10-07T12:29:08.639Z,265
2016-10-07T12:30:19.853Z,245
2016-10-07T12:31:31.430Z,215
2016-10-07T12:32:42.117Z,195
2016-10-07T12:33:53.608Z,185
2016-10-07T12:35:05.579Z,180
2016-10-07T12:36:16.215Z,190
2016-10-07T12:37:27.116Z,210
2016-10-07T12:38:37.808Z,240
2016-10-07T12:39:48.898Z,285
2016-10-07T12:40:59.578Z,335
2016-10-07T12:42:11.435Z,365
2016-10-07T12:43:22.602Z,380
2016-10-07T12:44:34.474Z,400
2016-10-07T12:45:45.190Z,410
2016-10-07T12:46:56.266Z,430
2016-10-07T12:48:07.404Z,480
2016-10-07T12:49:18.347Z,560
2016-10-07T12:50:29.462Z,665
2016-10-07T12:51:40.485Z,735
2016-10-07T12:52:51.180Z,770
2016-10-07T12:54:02.731Z,790
2016-10-07T12:55:13.915Z,815
2016-10-07T12:56:24.666Z,815
2016-10-07T12:57:35.768Z,820
2016-10-07T12:58:47.408Z,850
2016-10-07T12:59:59.029Z,910
2016-10-07T13:01:09.810Z,990
2016-10-07T13:02:20.939Z,1070
2016-10-07T13:03:32.131Z,1140
2016-10-07T13:04:44.379Z,1250
2016-10-07T13:05:55.079Z,1255
2016-10-07T13:07:05.893Z,1260
2016-10-07T13:08:17.505Z,1250
2016-10-07T13:09:28.590Z,1240
2016-10-07T13:10:39.683Z,1320
2016-10-07T13:11:50.361Z,1350
2016-10-07T13:13:01.247Z,3085
2016-10-07T13:14:11.944Z,1355
2016-10-07T13:15:23.113Z,1135
2016-10-07T13:16:33.906Z,1010
2016-10-07T13:17:45.011Z,770
2016-10-07T13:18:56.480Z,670
2016-10-07T13:20:07.208Z,675
2016-10-07T13:21:18.826Z,720
2016-10-07T13:22:29.879Z,775
2016-10-07T13:23:40.544Z,815
2016-10-07T13:24:51.634Z,830
2016-10-07T13:26:02.367Z,855
2016-10-07T13:27:13.086Z,870
2016-10-07T13:28:23.804Z,865
2016-10-07T13:29:34.347Z,910
2016-10-07T13:30:45.007Z,1045
2016-10-07T13:31:55.903Z,1135
2016-10-07T13:33:06.502Z,1055
2016-10-07T13:34:17.036Z,2240
2016-10-07T13:35:27.599Z,1230
2016-10-07T13:36:38.263Z,960
2016-10-07T13:37:48.814Z,1430
2016-10-07T13:38:59.349Z,1970
2016-10-07T13:40:09.864Z,2605
2016-10-07T13:41:20.445Z,2785
2016-10-07T13:42:31.092Z,2760
2016-10-07T13:43:41.628Z,1400
2016-10-07T13:44:52.220Z,3010
2016-10-07T13:46:02.838Z,1325
2016-10-07T13:47:13.425Z,1160
2016-10-07T13:48:24.081Z,875
2016-10-07T13:49:35.045Z,705
2016-10-07T13:50:45.622Z,640
2016-10-07T13:51:56.181Z,600
2016-10-07T13:53:06.772Z,530
2016-10-07T13:54:17.353Z,435
2016-10-07T13:55:27.878Z,370
2016-10-07T13:56:38.750Z,340
2016-10-07T13:57:49.315Z,350
2016-10-07T13:58:59.865Z,365
2016-10-07T14:00:10.540Z,385
2016-10-07T14:01:21.123Z,395
2016-10-07T14:02:31.645Z,405
2016-10-07T14:03:42.200Z,395
2016-10-07T14:04:52.791Z,370
2016-10-07T14:06:03.432Z,345
2016-10-07T14:07:13.972Z,345
2016-10-07T14:08:24.918Z,405
2016-10-07T14:09:35.446Z,500
2016-10-07T14:10:45.962Z,630
2016-10-07T14:11:56.555Z,735
2016-10-07T14:13:07.018Z,1520
2016-10-07T14:14:17.508Z,1065
2016-10-07T14:15:27.995Z,2030
2016-10-07T14:16:38.481Z,2945
2016-10-07T14:17:49.480Z,1115
2016-10-07T14:18:59.984Z,1625
2016-10-07T14:20:10.468Z,2800
2016-10-07T14:21:20.954Z,1600
2016-10-07T14:22:31.475Z,1180
2016-10-07T14:23:42.066Z,1055
2016-10-07T14:24:52.558Z,925
2016-10-07T14:26:03.076Z,800
2016-10-07T14:27:13.622Z,700
2016-10-07T14:28:24.154Z,660
2016-10-07T14:29:34.778Z,665
2016-10-07T14:30:45.272Z,665
2016-10-07T14:31:55.759Z,655
2016-10-07T14:33:06.260Z,640
2016-10-07T14:34:16.754Z,605
2016-10-07T14:35:27.445Z,525
2016-10-07T14:36:37.943Z,455
2016-10-07T14:37:48.443Z,420
2016-10-07T14:38:58.920Z,415
2016-10-07T14:40:09.421Z,420
2016-10-07T14:41:20.426Z,440
2016-10-07T14:42:30.922Z,480
2016-10-07T14:43:41.463Z,595
2016-10-07T14:44:51.981Z,2525
2016-10-07T14:46:02.510Z,2590
2016-10-07T14:47:13.148Z,2630
2016-10-07T14:48:23.644Z,2735
2016-10-07T14:49:34.144Z,1785
2016-10-07T14:50:45.023Z,1695
2016-10-07T14:51:55.527Z,2745
2016-10-07T14:53:06.130Z,1380
2016-10-07T14:54:16.614Z,2535
2016-10-07T14:55:27.170Z,2440
2016-10-07T14:56:37.716Z,860
2016-10-07T14:57:48.207Z,905
2016-10-07T14:58:58.725Z,725
2016-10-07T15:00:09.303Z,635
2016-10-07T15:01:56.645Z,630
2016-10-07T15:03:07.183Z,700
2016-10-07T15:04:17.842Z,775
2016-10-07T15:05:28.329Z,835
2016-10-07T15:06:38.868Z,880
2016-10-07T15:07:49.350Z,930
2016-10-07T15:08:59.885Z,1145
2016-10-07T15:10:10.478Z,870
2016-10-07T15:11:20.987Z,800
2016-10-07T15:12:31.519Z,735
2016-10-07T15:13:42.504Z,655
2016-10-07T15:14:52.999Z,590
2016-10-07T15:16:04.155Z,540
2016-10-07T15:17:14.659Z,530
2016-10-07T15:18:25.152Z,530
2016-10-07T15:19:35.677Z,555
2016-10-07T15:20:46.591Z,580
2016-10-07T15:21:57.244Z,650
2016-10-07T15:23:07.736Z,725
2016-10-07T15:24:18.203Z,805
2016-10-07T15:25:28.673Z,910
2016-10-07T15:26:39.214Z,1390
2016-10-07T15:27:49.827Z,1070
2016-10-07T15:29:00.321Z,985
2016-10-07T15:30:10.900Z,1040
2016-10-07T15:31:21.890Z,2450
2016-10-07T15:32:32.368Z,1150
2016-10-07T15:33:42.974Z,1950
2016-10-07T15:34:53.519Z,2280
2016-10-07T15:36:04.446Z,1740
2016-10-07T15:37:14.935Z,1070
2016-10-07T15:38:25.445Z,2170
2016-10-07T15:39:36.091Z,805
2016-10-07T15:40:46.605Z,835
2016-10-07T15:41:57.150Z,880
2016-10-07T15:43:07.643Z,910
2016-10-07T15:44:18.537Z,1185
2016-10-07T15:45:29.168Z,1170
2016-10-07T15:46:39.682Z,1030
2016-10-07T15:47:50.227Z,2440
2016-10-07T15:49:00.747Z,790
2016-10-07T15:50:11.242Z,705
2016-10-07T15:51:21.832Z,665
2016-10-07T15:52:32.335Z,640
2016-10-07T15:53:42.807Z,625
2016-10-07T15:54:53.285Z,595
2016-10-07T15:56:04.258Z,570
2016-10-07T15:57:14.953Z,575
2016-10-07T15:58:25.943Z,630
2016-10-07T15:59:36.881Z,660
2016-10-07T16:00:47.442Z,2325
2016-10-07T16:01:57.947Z,710
2016-10-07T16:03:08.516Z,660
2016-10-07T16:04:19.507Z,605
2016-10-07T16:05:30.036Z,545
2016-10-07T16:06:40.542Z,490
2016-10-07T16:07:51.112Z,390
2016-10-07T16:09:01.689Z,315
2016-10-07T16:10:12.198Z,260
2016-10-07T16:11:22.719Z,250
2016-10-07T16:12:33.229Z,255
2016-10-07T16:13:43.766Z,280
2016-10-07T16:14:54.417Z,315
2016-10-07T16:16:04.923Z,370
2016-10-07T16:17:15.468Z,460
2016-10-07T16:18:25.960Z,575
2016-10-07T16:19:36.438Z,650
2016-10-07T16:20:47.684Z,620
2016-10-07T16:21:58.208Z,600
2016-10-07T16:23:09.211Z,640
2016-10-07T16:24:19.724Z,695
2016-10-07T16:25:30.213Z,775
2016-10-07T16:26:40.851Z,890
2016-10-07T16:27:51.314Z,1610
2016-10-07T16:29:01.848Z,1030
2016-10-07T16:30:12.368Z,2745
2016-10-07T16:31:22.867Z,2465
2016-10-07T16:32:33.522Z,2465
2016-10-07T16:33:44.017Z,1640
2016-10-07T16:34:54.563Z,2010
2016-10-07T16:36:05.600Z,1955
2016-10-07T16:37:16.102Z,1795
2016-10-07T16:38:26.633Z,2185
2016-10-07T16:39:37.636Z,2120
2016-10-07T16:40:48.117Z,2145
2016-10-07T16:41:59.149Z,2180
2016-10-07T16:43:09.680Z,2075
2016-10-07T16:44:20.266Z,2090
2016-10-07T16:45:30.835Z,2095
2016-10-07T16:46:41.363Z,1975
2016-10-07T16:47:51.869Z,2015